Tiempo atmosférico en la estación meteorológica de San Andrés y Sauces, Santa Cruz de Tenerife (362 m.)



Fecha
DESCASC
Temp. máxima en grados centígrados (hora)
DESCASC
Temp. mínima en grados centígrados (hora)
DESCASC
Temp. media en grados centígrados
DESCASC
Racha de viento máxima en m/sg (hora)
DESCASC
Velocidad máxima media en intervalos de 10 minutos(hora)
DESCASC
Precipitaciones diarias en mm
DESCASC
Precipitaciones de 00:00 a 06:00 en mm
DESCASC
Precipitaciones de 06:00 a 12:00 en mm
DESCASC
Precipitaciones de 12:00 a 18:00 en mm
DESCASC
Precipitaciones de 18:00 a 24:00 en mm
DESCASC
27-10-2020 23 (10:20) 16.4 (04:10) 19.7 6.94 (12:10) 4.44 (11:10) 0 0 0 0 0
26-10-2020 22.5 (13:50) 16.9 (01:40) 19.7 8.33 (14:20) 5 (13:20) 0.2 0.2 0 0 0
25-10-2020 19.8 (14:10) 17.5 (21:30) 18.6 5.83 (00:50) 3.61 (03:20) 0 0 0 0 0
24-10-2020 20.2 (15:30) 16.8 (00:00) 18.5 7.5 (09:40) 4.72 (10:10) 0.2 0.2 0 0 0
23-10-2020 22.4 (13:20) 14.9 (00:00) 18.6 7.5 (13:40) 5 (14:40) 1.8 0.4 1.4 0 0
22-10-2020 20 (14:40) 15.3 (00:00) 17.7 9.44 (14:30) 5.83 (16:00) 2 1 0.6 0.2 0.2
21-10-2020 20.9 (13:50) 15.6 (00:00) 18.3 11.67 (06:50) 6.11 (13:00) 5.8 0 1.2 0 4.6
20-10-2020 25.8 (03:50) 19 (00:00) 22.4 17.5 (10:20) 9.17 (16:00) 12 0 11 1 0
19-10-2020 28 (14:40) 19.9 (00:00) 23.9 6.67 (14:00) 4.17 (04:10) 0 0 0 0 0
18-10-2020 24.6 (12:10) 17.5 (00:00) 21.1 6.11 (23:59) 3.89 (00:50) 0 0 0 0 0
17-10-2020 20.3 (14:40) 16.6 (00:00) 18.4 6.11 (09:50) 4.44 (01:30) 4.2 0 4.2 0 0
16-10-2020 21.9 (12:50) 17.4 (00:00) 19.6 5.56 (13:40) 3.89 (21:00) 5.6 0 0 4.6 1
15-10-2020 23.3 (13:40) 18.2 (00:00) 20.8 8.33 (03:50) 5.28 (00:50) 0 0 0 0 0
14-10-2020 23 (12:10) 18.4 (00:00) 20.7 6.67 (02:30) 4.44 (21:50) 0 0 0 0 0
13-10-2020 25.9 (11:40) 19.1 (00:00) 22.5 6.67 (09:20) 4.17 (23:40) 0 0 0 0 0
12-10-2020 23.7 (14:30) 18.8 (00:00) 21.3 7.5 (07:20) 4.17 (07:10) 0 0 0 0 0
11-10-2020 21 (15:50) 19 (00:00) 20 8.33 (13:00) 6.11 (13:10) 0 0 0 0 0
10-10-2020 23.5 (11:20) 19.1 (00:00) 21.3 7.78 (11:10) 3.89 (13:30) 0.8 0 0 0 0.8
09-10-2020 25.2 (15:10) 18.6 (00:00) 21.9 6.11 (22:00) 3.89 (21:30) 1.2 1.2 0 0 0
08-10-2020 24.3 (12:50) 18 (00:00) 21.1 5 (12:10) 3.33 (12:00) 0 0 0 0 0
07-10-2020 22.9 (15:30) 18.7 (00:00) 20.8 5.83 (16:10) 2.5 (16:10) 1.6 1.6 0 0 0
06-10-2020 19.2 (00:10) 17.1 (00:00) 18.2 7.78 (02:50) 4.44 (12:50) 37.6 6 18.2 12 1.4
05-10-2020 22.2 (10:20) 18.3 (00:00) 20.3 9.72 (03:10) 6.11 (16:40) 5.8 0.2 0.2 4.6 0.8
04-10-2020 24 (13:10) 18.1 (00:00) 21.1 7.22 (13:20) 4.72 (13:20) 6.4 4.4 1 0 1
03-10-2020 23.9 (14:20) 18.6 (00:00) 21.3 8.06 (15:20) 5.28 (15:20) 0.4 0 0 0 0.4
02-10-2020 23.5 (14:20) 18.2 (00:00) 20.9 7.78 (18:10) 5.28 (18:30) 1.8 0 0.2 0 1.6
01-10-2020 23.9 (14:50) 18.5 (08:00) 21.2 8.33 (12:40) 4.72 (08:30) 1 0 0.2 0 0.8
30-09-2020 23.2 (14:30) 18.3 (00:00) 20.8 6.11 (20:40) 3.89 (05:30) 0.4 0.2 0.2 0 0

Gráficas

Temp. máximas Temp. mínimas Temp. medias Precipitaciones Rachas de viento máximas Velocidades máximas media en intervalos de 10 minutos

Datos horarios

Fecha y hora oficial Temperatura (ºC) Velocidad del viento (km/h) Dirección del viento Racha (km/h) Dirección de racha Precipitación (mm) Presión (hPa) Tendencia (hPa) Humedad (%)
2020-10-29 23:00:00 17.8 6 Sudoeste 15 Sudoeste 0 -- -- 83
2020-10-29 22:00:00 17.7 9 Sudoeste 15 Sudoeste 0 -- -- 79
2020-10-29 21:00:00 17.6 7 Oeste 14 Noroeste 0 -- -- 81
2020-10-29 20:00:00 17.5 9 Noroeste 15 Sudoeste 0 -- -- 82
2020-10-29 19:00:00 17.5 9 Sudoeste 13 Nordeste 0.2 -- -- 89
2020-10-29 18:00:00 18.6 5 Oeste 14 Norte 0 -- -- 80
2020-10-29 17:00:00 18.9 10 Norte 17 Norte 0 -- -- 75
2020-10-29 16:00:00 20 10 Nordeste 19 Nordeste 0 -- -- 69
2020-10-29 15:00:00 20.6 7 Norte 22 Nordeste 0 -- -- 66
2020-10-29 14:00:00 20.5 5 Este 12 Nordeste 0 -- -- 65
2020-10-29 13:00:00 19.5 4 Este 18 Este 0 -- -- 74
2020-10-29 12:00:00 19.5 5 Oeste 17 Sur 0 -- -- 70
2020-10-29 11:00:00 18.3 8 Sudoeste 19 Sudoeste 0.2 -- -- 84
2020-10-29 10:00:00 16.4 4 Sudoeste 29 Nordeste 0.2 -- -- 94
2020-10-29 09:00:00 17.2 8 Norte 15 Nordeste 0 -- -- 90
2020-10-29 08:00:00 16.6 8 Sudoeste 21 Sudoeste 0.2 -- -- 90
2020-10-29 07:00:00 16.3 8 Sudoeste 20 Sudoeste 0.4 -- -- 88
2020-10-29 06:00:00 17.4 3 Sur 13 Sudoeste 0 -- -- 79
2020-10-29 05:00:00 17.5 6 Sudoeste 11 Sudoeste 0 -- -- 82
2020-10-29 04:00:00 17.6 2 Sudoeste 12 Sudoeste 0 -- -- 82
2020-10-29 03:00:00 17.9 11 Sudoeste 15 Sudoeste 0 -- -- 73
2020-10-29 02:00:00 17.8 4 Sudoeste 14 Sudoeste 0 -- -- 74
2020-10-29 01:00:00 17.7 9 Sudoeste 14 Sudoeste 0 -- -- 79
2020-10-29 00:00:00 17.7 6 Sur 20 Sudoeste 0 -- -- 78
2020-10-28 23:00:00 17.7 10 Sudoeste 20 Sudoeste 0 -- -- 76
2020-10-28 22:00:00 17.5 12 Sudoeste 17 Sudoeste 0 -- -- 83
2020-10-28 21:00:00 18.2 12 Sudoeste 22 Sudoeste 0 -- -- 70
2020-10-28 20:00:00 18.1 5 Sudeste 19 Nordeste 0 -- -- 75
2020-10-28 19:00:00 18.2 8 Este 15 Este 0 -- -- 81
2020-10-28 18:00:00 18.7 8 Este 14 Nordeste 0 -- -- 76
2020-10-28 17:00:00 19.3 11 Nordeste 18 Este 0 -- -- 73
2020-10-28 16:00:00 19.9 9 Este 15 Este 0 -- -- 65
2020-10-28 15:00:00 19.6 11 Este 19 Este 0 -- -- 69
2020-10-28 14:00:00 20.1 13 Este 19 Este 0 -- -- 69
2020-10-28 13:00:00 20 5 Este 16 Este 0 -- -- 68
2020-10-28 12:00:00 20.7 7 Este 19 Nordeste 0 -- -- 60
2020-10-28 11:00:00 19.6 9 Nordeste 20 Nordeste 0 -- -- 64
2020-10-28 10:00:00 19 6 Nordeste 12 Este 0 -- -- 71
2020-10-28 09:00:00 18.2 5 Sudoeste 13 Sudoeste 0 -- -- 74
2020-10-28 08:00:00 17.4 8 Sudoeste 13 Sudoeste 0 -- -- 81
2020-10-28 07:00:00 17.4 10 Sudoeste 13 Sudoeste 0 -- -- 80
2020-10-28 06:00:00 17.4 6 Nordeste 20 Este 0 -- -- 79
2020-10-28 05:00:00 17.5 4 Sudoeste 18 Sudoeste 0 -- -- 76
2020-10-28 04:00:00 17.4 8 Sudoeste 19 Sudoeste 0 -- -- 73
2020-10-28 03:00:00 17.4 8 Sudoeste 14 Sudoeste 0 -- -- 77
2020-10-28 02:00:00 17.9 6 Oeste 14 Norte 0 -- -- 75
2020-10-28 01:00:00 18 3 Este 15 Sudoeste 0 -- -- 80
2020-10-28 00:00:00 17.8 6 Sudoeste 17 Sudoeste 0 -- -- 80
2020-10-27 23:00:00 17.8 9 Sudoeste 18 Sudoeste 0 -- -- 81
2020-10-27 22:00:00 17.6 10 Sudoeste 15 Sudoeste 0 -- -- 85
2020-10-27 21:00:00 17.3 8 Sudoeste 13 Sudoeste 0 -- -- 86
2020-10-27 20:00:00 17.8 5 Sudoeste 15 Sudoeste 0 -- -- 84
2020-10-27 19:00:00 18.1 8 Este 18 Este 0 -- -- 86
2020-10-27 18:00:00 19.1 5 Sudeste 14 Sudeste 0 -- -- 78
2020-10-27 17:00:00 19.4 9 Este 19 Este 0 -- -- 76
2020-10-27 16:00:00 19.8 11 Nordeste 19 Este 0 -- -- 74
2020-10-27 15:00:00 20.3 13 Este 19 Este 0 -- -- 74
2020-10-27 14:00:00 20.6 15 Este 22 Este 0 -- -- 77
2020-10-27 13:00:00 20.8 13 Este 25 Este 0 -- -- 80
2020-10-27 12:00:00 20.3 10 Este 23 Este 0 -- -- 82
2020-10-27 11:00:00 22.4 8 Este 16 Este 0 -- -- 73
2020-10-27 10:00:00 22.3 7 Este 17 Nordeste 0 -- -- 70
2020-10-27 09:00:00 19 5 Sur 15 Sudoeste 0 -- -- 80
2020-10-27 08:00:00 17.7 8 Sudoeste 17 Sudoeste 0 -- -- 79
2020-10-27 07:00:00 17 11 Sudoeste 16 Sudoeste 0 -- -- 78
2020-10-27 06:00:00 16.8 11 Sudoeste 17 Sudoeste 0 -- -- 79
2020-10-27 05:00:00 17.4 8 Oeste 17 Sudoeste 0 -- -- 77
2020-10-27 04:00:00 16.5 14 Sudoeste 19 Sudoeste 0 -- -- 80
2020-10-27 03:00:00 16.6 13 Sudoeste 19 Sudoeste 0 -- -- 76
2020-10-27 02:00:00 17.1 12 Sudoeste 17 Sudoeste 0 -- -- 76
2020-10-27 01:00:00 17.1 11 Sudoeste 17 Sudoeste 0 -- -- 77
2020-10-27 00:00:00 17.9 10 Sudoeste 16 Sudoeste 0 -- -- 78
2020-10-26 23:00:00 17.8 9 Sudoeste 22 Sudoeste 0 -- -- 75
2020-10-26 22:00:00 17.6 12 Sudoeste 23 Sudoeste 0 -- -- 74
2020-10-26 21:00:00 17.4 15 Sudoeste 24 Sudoeste 0 -- -- 74
2020-10-26 20:00:00 17.6 14 Sudoeste 20 Sudoeste 0 -- -- 75
2020-10-26 19:00:00 18.2 6 Sudoeste 17 Este 0 -- -- 76
2020-10-26 18:00:00 18.7 9 Sudoeste 19 Sudoeste 0 -- -- 73
2020-10-26 17:00:00 20 9 Sudeste 20 Este 0 -- -- 69
2020-10-26 16:00:00 21 11 Este 23 Este 0 -- -- 66
2020-10-26 15:00:00 21.1 14 Este 30 Este 0 -- -- 67
2020-10-26 14:00:00 22.1 14 Este 27 Este 0 -- -- 62
2020-10-26 13:00:00 21.8 14 Este 27 Este 0 -- -- 65
2020-10-26 12:00:00 21.3 12 Sudeste 25 Este 0 -- -- 65
2020-10-26 11:00:00 20.9 13 Este 27 Nordeste 0 -- -- 67
2020-10-26 10:00:00 19.6 12 Este 22 Este 0 -- -- 73
2020-10-26 09:00:00 18.7 13 Este 19 Este 0 -- -- 76
2020-10-26 08:00:00 17.8 11 Sudoeste 16 Sudoeste 0 -- -- 80
2020-10-26 07:00:00 17.3 5 Sur 17 Oeste 0 -- -- 80
2020-10-26 06:00:00 17.4 4 Sur 12 Sudoeste 0 -- -- 82
2020-10-26 05:00:00 17.4 7 Sur 13 Sudeste 0 -- -- 82
2020-10-26 04:00:00 17.5 7 Sur 18 Sudoeste 0 -- -- 82
2020-10-26 03:00:00 17.1 10 Sudoeste 17 Sudoeste 0 -- -- 85
2020-10-26 02:00:00 16.9 6 Sudoeste 18 Sudoeste 0.2 -- -- 88
2020-10-26 01:00:00 17.8 9 Sudoeste 15 Sudoeste 0 -- -- 81
2020-10-26 00:00:00 18 8 Sudoeste 15 Sur 0 -- -- 76
2020-10-25 23:00:00 17.9 6 Sudeste 17 Sudoeste 0 -- -- 78
2020-10-25 22:00:00 17.5 13 Sudoeste 17 Sudoeste 0 -- -- 78
2020-10-25 21:00:00 17.7 6 Sur 14 Sudeste 0 -- -- 77
2020-10-25 20:00:00 18 6 Sudeste 14 Sudeste 0 -- -- 77
2020-10-25 19:00:00 18 7 Sudoeste 19 Sudoeste 0 -- -- 77
2020-10-25 18:00:00 18.4 7 Sudeste 14 Este 0 -- -- 75
2020-10-25 17:00:00 19.2 9 Este 18 Este 0 -- -- 71
2020-10-25 16:00:00 19.4 10 Este 18 Este 0 -- -- 69
2020-10-25 15:00:00 19.8 9 Este 18 Nordeste 0 -- -- 70
2020-10-25 14:00:00 19.7 9 Este 16 Este 0 -- -- 71
2020-10-25 13:00:00 19.5 9 Este 15 Este 0 -- -- 70
2020-10-25 12:00:00 19 9 Este 19 Este 0 -- -- 74
2020-10-25 11:00:00 19 8 Este 18 Este 0 -- -- 72
2020-10-25 10:00:00 18.9 10 Este 21 Este 0 -- -- 76
2020-10-25 09:00:00 18.5 8 Sudeste 13 Sudoeste 0 -- -- 72
2020-10-25 08:00:00 18 8 Sur 18 Oeste 0 -- -- 76
2020-10-25 07:00:00 17.8 6 Sur 15 Oeste 0 -- -- 77
2020-10-25 06:00:00 17.7 6 Sur 17 Sudoeste 0 -- -- 74
2020-10-25 05:00:00 17.7 10 Sudoeste 16 Sudoeste 0 -- -- 73
2020-10-25 04:00:00 18.1 10 Sudoeste 20 Sudoeste 0 -- -- 72
2020-10-25 03:00:00 18.1 9 Sudoeste 19 Oeste 0 -- -- 77
2020-10-25 02:00:00 17.9 9 Sudoeste 18 Sudoeste 0 -- -- 80
2020-10-25 01:00:00 17.9 9 Sudoeste 21 Sudoeste 0 -- -- 82
2020-10-25 00:00:00 17.6 12 Sudoeste 19 Sudoeste 0 -- -- 75
2020-10-24 23:00:00 18.1 7 Sudoeste 14 Sudoeste 0 -- -- 73
2020-10-24 22:00:00 18.3 7 Sur 23 Sudeste 0 -- -- 74
2020-10-24 21:00:00 18.3 8 Sudoeste 15 Sudoeste 0 -- -- 78
2020-10-24 20:00:00 18.4 7 Sudoeste 15 Sudeste 0 -- -- 78
2020-10-24 19:00:00 18.8 8 Sudeste 19 Sudeste 0 -- -- 77
2020-10-24 18:00:00 19.1 9 Sudeste 19 Sudeste 0 -- -- 76
2020-10-24 17:00:00 19.3 9 Este 21 Este 0 -- -- 76
2020-10-24 16:00:00 19.9 14 Este 22 Este 0 -- -- 70
2020-10-24 15:00:00 19.7 10 Este 25 Este 0 -- -- 70
2020-10-24 14:00:00 19.7 12 Sudeste 26 Sudeste 0 -- -- 73
2020-10-24 13:00:00 19.5 11 Sudeste 24 Este 0 -- -- 72
2020-10-24 12:00:00 19.1 11 Este 24 Este 0 -- -- 74
2020-10-24 11:00:00 18.9 10 Este 25 Este 0 -- -- 76
2020-10-24 10:00:00 18.3 15 Este 27 Este 0 -- -- 79
2020-10-24 09:00:00 17.5 6 Sudeste 13 Sur 0 -- -- 82
2020-10-24 08:00:00 17.3 6 Sudeste 15 Sudoeste 0 -- -- 82
2020-10-24 07:00:00 17.1 12 Sudoeste 16 Sudoeste 0 -- -- 81
2020-10-24 06:00:00 16.8 11 Sudoeste 24 Sudoeste 0 -- -- 83
2020-10-24 05:00:00 17 9 Sudoeste 19 Sudoeste 0.2 -- -- 83
2020-10-24 04:00:00 17.2 5 Sudoeste 24 Sudoeste 0 -- -- 81
2020-10-24 03:00:00 17.4 12 Sudoeste 22 Sudoeste 0 -- -- 77
2020-10-24 02:00:00 17.3 15 Sudoeste 21 Sudoeste 0 -- -- 77
2020-10-24 01:00:00 17.8 9 Sudoeste 23 Sudoeste 0 -- -- 72
2020-10-24 00:00:00 17.8 12 Sudoeste 24 Sudoeste 0 -- -- 75
2020-10-23 23:00:00 17.8 13 Sudoeste 24 Sudoeste 0 -- -- 74
2020-10-23 22:00:00 17.4 9 Sudoeste 24 Sudoeste 0 -- -- 75
2020-10-23 21:00:00 17.3 14 Sudoeste 20 Sudoeste 0 -- -- 78
2020-10-23 20:00:00 17.9 8 Sur 19 Sudoeste 0 -- -- 73
2020-10-23 19:00:00 18.8 8 Sur 15 Sudoeste 0 -- -- 68
2020-10-23 18:00:00 20.1 10 Sudeste 21 Este 0 -- -- 61
2020-10-23 17:00:00 19.9 10 Este 24 Este 0 -- -- 67
2020-10-23 16:00:00 21.1 15 Este 26 Este 0 -- -- 63
2020-10-23 15:00:00 22.2 17 Este 27 Este 0 -- -- 57
2020-10-23 14:00:00 21.9 14 Este 27 Este 0 -- -- 61
2020-10-23 13:00:00 21.8 11 Este 24 Este 0 -- -- 62
2020-10-23 12:00:00 20.8 9 Este 19 Este 0 -- -- 63
2020-10-23 11:00:00 20.7 9 Este 18 Este 0 -- -- 68
2020-10-23 10:00:00 17.2 11 Sudoeste 20 Sudoeste 0.4 -- -- 86
2020-10-23 09:00:00 15.8 12 Sudoeste 24 Sudoeste 0 -- -- 87
2020-10-23 08:00:00 15.2 14 Sudoeste 25 Sudoeste 1 -- -- 88
2020-10-23 07:00:00 15.6 11 Sudoeste 16 Oeste 0 -- -- 83
2020-10-23 06:00:00 15.5 13 Sudoeste 26 Sudoeste 0 -- -- 85
2020-10-23 05:00:00 15.4 15 Sudoeste 24 Sudoeste 0 -- -- 83
2020-10-23 04:00:00 15.3 12 Sudoeste 23 Sudoeste 0 -- -- 86
2020-10-23 03:00:00 14.9 14 Sudoeste 22 Sudoeste 0.4 -- -- 87
2020-10-23 02:00:00 15.3 15 Sudoeste 26 Sudoeste 0 -- -- 76
2020-10-23 01:00:00 15.3 15 Sudoeste 22 Sudoeste 0 -- -- 77
2020-10-23 00:00:00 15.3 15 Sudoeste 24 Sudoeste 0 -- -- 79
2020-10-22 23:00:00 15.3 14 Sudoeste 23 Sudoeste 0.2 -- -- 79
2020-10-22 22:00:00 15.8 14 Sudoeste 21 Sudoeste 0 -- -- 78
2020-10-22 21:00:00 16 14 Sudoeste 26 Sudoeste 0 -- -- 72
2020-10-22 20:00:00 16.5 12 Sudoeste 18 Sudoeste 0 -- -- 77
2020-10-22 19:00:00 17.5 6 Oeste 19 Norte 0 -- -- 73
2020-10-22 18:00:00 18.9 14 Norte 29 Nordeste 0 -- -- 70
2020-10-22 17:00:00 19 17 Norte 30 Norte 0 -- -- 68
2020-10-22 16:00:00 18.9 21 Norte 29 Norte 0 -- -- 68
2020-10-22 15:00:00 19.2 20 Norte 34 Norte 0 -- -- 71
2020-10-22 14:00:00 19.2 20 Norte 30 Nordeste 0 -- -- 69
2020-10-22 13:00:00 19.1 8 Norte 26 Noroeste 0.2 -- -- 75
2020-10-22 12:00:00 18 10 Oeste 29 Noroeste 0.4 -- -- 80
2020-10-22 11:00:00 17.5 13 Norte 28 Norte 0.2 -- -- 78
2020-10-22 10:00:00 17.6 13 Oeste 25 Noroeste 0 -- -- 79
2020-10-22 09:00:00 16.2 13 Oeste 24 Oeste 0 -- -- 84
2020-10-22 08:00:00 15.9 13 Sudoeste 21 Sudoeste 0 -- -- 85
2020-10-22 07:00:00 15.4 14 Sudoeste 22 Oeste 0 -- -- 83
2020-10-22 06:00:00 15.8 14 Oeste 22 Sudoeste 0 -- -- 77
2020-10-22 05:00:00 15.6 14 Sudoeste 26 Oeste 0.2 -- -- 82
2020-10-22 04:00:00 15.7 14 Oeste 27 Noroeste 0 -- -- 79
2020-10-22 03:00:00 15.6 14 Oeste 27 Oeste 0 -- -- 83
2020-10-22 02:00:00 15.5 15 Oeste 28 Noroeste 0.6 -- -- 85
2020-10-22 01:00:00 16 14 Oeste 30 Oeste 0.2 -- -- 85
2020-10-22 00:00:00 15.6 16 Oeste 30 Oeste 3.2 -- -- 88
2020-10-21 23:00:00 16.4 14 Oeste 34 Oeste 0.6 -- -- 85
2020-10-21 22:00:00 17 15 Oeste 28 Oeste 0 -- -- 80
2020-10-21 21:00:00 16.7 15 Oeste 34 Oeste 0.8 -- -- 85
2020-10-21 20:00:00 18 16 Noroeste 33 Oeste 0 -- -- 78
2020-10-21 19:00:00 19.1 9 Oeste 28 Noroeste 0 -- -- 62
2020-10-21 18:00:00 19.5 15 Noroeste 33 Noroeste 0 -- -- 64
2020-10-21 17:00:00 19.7 18 Norte 33 Norte 0 -- -- 69
2020-10-21 16:00:00 20.7 18 Norte 36 Noroeste 0 -- -- 69
2020-10-21 15:00:00 20.7 17 Noroeste 37 Noroeste 0 -- -- 71
2020-10-21 14:00:00 20.9 9 Noroeste 37 Noroeste 0 -- -- 70
2020-10-21 13:00:00 19.4 22 Noroeste 38 Noroeste 0 -- -- 72
2020-10-21 12:00:00 19.5 12 Norte 32 Oeste 0 -- -- 74
2020-10-21 11:00:00 18.5 17 Noroeste 36 Noroeste 0.2 -- -- 84
2020-10-21 10:00:00 17.4 13 Oeste 35 Noroeste 0.2 -- -- 85
2020-10-21 09:00:00 16.6 8 Oeste 34 Oeste 0.8 -- -- 86
2020-10-21 08:00:00 18.7 14 Oeste 38 Noroeste 0 -- -- 76
2020-10-21 07:00:00 19.3 12 Oeste 42 Sur 0 -- -- 61
2020-10-21 06:00:00 18.2 14 Oeste 28 Noroeste 0 -- -- 74
2020-10-21 05:00:00 18.6 8 Oeste 24 Sudoeste 0 -- -- 72
2020-10-21 04:00:00 18.7 13 Sudoeste 22 Sudoeste 0 -- -- 73
2020-10-21 03:00:00 18.4 10 Sudoeste 19 Sudoeste 0 -- -- 74
2020-10-21 02:00:00 18.6 8 Oeste 22 Sudoeste 0 -- -- 75
2020-10-21 01:00:00 18.4 11 Sudoeste 21 Sudoeste 0 -- -- 73
2020-10-21 00:00:00 19 6 Oeste 23 Sudoeste 0 -- -- 64
2020-10-20 23:00:00 19.7 9 Oeste 39 Noroeste 0 -- -- 55
2020-10-20 22:00:00 20 15 Oeste 44 Oeste 0 -- -- 46
2020-10-20 21:00:00 19.6 12 Oeste 28 Noroeste 0 -- -- 59
2020-10-20 20:00:00 20 14 Oeste 39 Oeste 0 -- -- 64
2020-10-20 19:00:00 20.8 19 Oeste 44 Oeste 0 -- -- 60
2020-10-20 18:00:00 21.9 20 Noroeste 48 Noroeste 0 -- -- 57
2020-10-20 17:00:00 21.7 28 Noroeste 53 Noroeste 0 -- -- 73
2020-10-20 16:00:00 22.1 33 Norte 58 Noroeste 0 -- -- 76
2020-10-20 15:00:00 23.3 19 Norte 45 Oeste 0 -- -- 68
2020-10-20 14:00:00 22.5 31 Oeste 59 Noroeste 0.4 -- -- 69
2020-10-20 13:00:00 22.5 23 Noroeste 63 Norte 0.6 -- -- 76
2020-10-20 12:00:00 19.9 24 Norte 48 Noroeste 9.6 -- -- 96
2020-10-20 11:00:00 21.7 20 Sudoeste 63 Norte 1.4 -- -- 83
2020-10-20 10:00:00 22.6 12 Norte 57 Nordeste 0 -- -- 81
2020-10-20 09:00:00 23.7 27 Nordeste 47 Norte 0 -- -- 70
2020-10-20 08:00:00 25.2 21 Oeste 49 Sudoeste 0 -- -- 53
2020-10-20 07:00:00 24.2 10 Sudeste 30 Oeste 0 -- -- 58
2020-10-20 06:00:00 25.5 13 Sudoeste 44 Sudoeste 0 -- -- 49
2020-10-20 05:00:00 25.3 8 Sudoeste 41 Sudoeste 0 -- -- 48
2020-10-20 04:00:00 25.7 20 Sudoeste 49 Sur 0 -- -- 46
2020-10-20 03:00:00 24.3 12 Oeste 31 Sudoeste 0 -- -- 49
2020-10-20 02:00:00 22.7 5 Oeste 15 Sudoeste 0 -- -- 66
2020-10-20 01:00:00 22.7 4 Oeste 15 Sudoeste 0 -- -- 67
2020-10-20 00:00:00 22.4 7 Sudoeste 22 Sudoeste 0 -- -- 67
2020-10-19 23:00:00 22.9 10 Sudoeste 21 Sudoeste 0 -- -- 66
2020-10-19 22:00:00 22.3 6 Sudoeste 17 Oeste 0 -- -- 70
2020-10-19 21:00:00 22.5 10 Sudoeste 16 Sudoeste 0 -- -- 69
2020-10-19 20:00:00 22.7 12 Sudoeste 17 Oeste 0 -- -- 71
2020-10-19 19:00:00 23.7 8 Sudoeste 15 Sudoeste 0 -- -- 70
2020-10-19 18:00:00 25.4 4 Nordeste 15 Norte 0 -- -- 66
2020-10-19 17:00:00 27 9 Nordeste 22 Este 0 -- -- 58
2020-10-19 16:00:00 27.3 9 Este 22 Este 0 -- -- 61
2020-10-19 15:00:00 28 13 Este 21 Este 0 -- -- 60
2020-10-19 14:00:00 27.4 12 Este 24 Este 0 -- -- 60
2020-10-19 13:00:00 27 10 Este 18 Este 0 -- -- 64
2020-10-19 12:00:00 25.9 8 Este 15 Este 0 -- -- 69
2020-10-19 11:00:00 25.9 8 Este 17 Este 0 -- -- 69
2020-10-19 10:00:00 23.5 5 Sur 17 Sudoeste 0 -- -- 72
2020-10-19 09:00:00 20.9 10 Sudoeste 20 Sudoeste 0 -- -- 79
2020-10-19 08:00:00 20.1 11 Sudoeste 17 Sudoeste 0 -- -- 81
2020-10-19 07:00:00 20.4 10 Sudoeste 16 Oeste 0 -- -- 78
2020-10-19 06:00:00 20.5 10 Oeste 20 Sudoeste 0 -- -- 76
2020-10-19 05:00:00 20.2 9 Sudoeste 21 Sudoeste 0 -- -- 78
2020-10-19 04:00:00 20.2 13 Sudoeste 19 Sudoeste 0 -- -- 80
2020-10-19 03:00:00 20.1 10 Sudoeste 18 Sudoeste 0 -- -- 78
2020-10-19 02:00:00 20.5 8 Oeste 18 Oeste 0 -- -- 77
2020-10-19 01:00:00 20.3 8 Sudoeste 19 Oeste 0 -- -- 78
2020-10-19 00:00:00 20.6 10 Sudoeste 22 Sudoeste 0 -- -- 78
2020-10-18 23:00:00 20.1 9 Sudoeste 17 Sudoeste 0 -- -- 78
2020-10-18 22:00:00 20.6 12 Sudoeste 20 Sudoeste 0 -- -- 75
2020-10-18 21:00:00 20.2 9 Sudoeste 18 Sur 0 -- -- 77
2020-10-18 20:00:00 20.3 5 Sur 15 Sur 0 -- -- 84
2020-10-18 19:00:00 21.5 5 Oeste 16 Noroeste 0 -- -- 80
2020-10-18 18:00:00 23 7 Nordeste 13 Este 0 -- -- 75
2020-10-18 17:00:00 24 4 Este 13 Norte 0 -- -- 71
2020-10-18 16:00:00 22.8 6 Nordeste 15 Norte 0 -- -- 77
2020-10-18 15:00:00 23.2 6 Nordeste 15 Este 0 -- -- 74
2020-10-18 14:00:00 22.7 6 Este 15 Nordeste 0 -- -- 73
2020-10-18 13:00:00 23.7 9 Nordeste 14 Nordeste 0 -- -- 73
2020-10-18 12:00:00 24.5 7 Nordeste 14 Este 0 -- -- 69
2020-10-18 11:00:00 23.8 10 Este 16 Este 0 -- -- 68
2020-10-18 10:00:00 20.8 6 Sudoeste 17 Sudoeste 0 -- -- 74
2020-10-18 09:00:00 18.9 12 Sudoeste 18 Sudoeste 0 -- -- 77
2020-10-18 08:00:00 18.2 9 Sudoeste 18 Sudoeste 0 -- -- 79
2020-10-18 07:00:00 17.7 8 Sudoeste 16 Sudoeste 0 -- -- 82
2020-10-18 06:00:00 18 10 Sudoeste 14 Sudoeste 0 -- -- 81
2020-10-18 05:00:00 17.8 9 Sudoeste 17 Sudoeste 0 -- -- 80
2020-10-18 04:00:00 17.7 9 Sudoeste 17 Sudoeste 0 -- -- 81
2020-10-18 03:00:00 18 12 Sudoeste 20 Sudoeste 0 -- -- 81
2020-10-18 02:00:00 17.9 10 Sudoeste 19 Sudoeste 0 -- -- 81
2020-10-18 01:00:00 17.6 13 Sudoeste 18 Sudoeste 0 -- -- 82
2020-10-18 00:00:00 17.7 8 Sudoeste 16 Sudoeste 0 -- -- 85
2020-10-17 23:00:00 18.2 8 Sudoeste 12 Sudoeste 0 -- -- 87
2020-10-17 22:00:00 18.2 5 Sur 10 Sudoeste 0 -- -- 86
2020-10-17 21:00:00 18.1 5 Sudoeste 12 Sudoeste 0 -- -- 88
2020-10-17 20:00:00 18.2 8 Sudoeste 12 Sudoeste 0 -- -- 89
2020-10-17 19:00:00 18.4 6 Sudoeste 11 Sudeste 0 -- -- 89
2020-10-17 18:00:00 19.3 5 Sudeste 14 Sudeste 0 -- -- 82
2020-10-17 17:00:00 19.5 5 Sudeste 15 Sudeste 0 -- -- 80
2020-10-17 16:00:00 19.8 6 Sudeste 16 Sudeste 0 -- -- 81
2020-10-17 15:00:00 20.1 5 Sudeste 18 Este 0 -- -- 80
2020-10-17 14:00:00 19.8 8 Sur 16 Sudoeste 0 -- -- 81
2020-10-17 13:00:00 19 7 Sudoeste 18 Sudoeste 0 -- -- 83
2020-10-17 12:00:00 18.2 13 Sudoeste 21 Sudoeste 0 -- -- 86
2020-10-17 11:00:00 17.6 12 Sudoeste 21 Sudoeste 0.2 -- -- 92
2020-10-17 10:00:00 17.4 14 Sudoeste 22 Sudoeste 0.4 -- -- 94
2020-10-17 09:00:00 16.8 9 Sudoeste 21 Sudoeste 3 -- -- 96
2020-10-17 08:00:00 16.8 12 Sudoeste 16 Sudoeste 0.6 -- -- 93
2020-10-17 07:00:00 17.2 5 Sudeste 17 Sudoeste 0 -- -- 89
2020-10-17 06:00:00 16.9 11 Sudoeste 17 Sudoeste 0 -- -- 86
2020-10-17 05:00:00 16.9 11 Sudoeste 16 Sudoeste 0 -- -- 88
2020-10-17 04:00:00 17.1 11 Sudoeste 17 Sudoeste 0 -- -- 86
2020-10-17 03:00:00 17.3 13 Sudoeste 18 Sudoeste 0 -- -- 85
2020-10-17 02:00:00 16.9 13 Sudoeste 21 Sudoeste 0 -- -- 84
2020-10-17 01:00:00 17 14 Sudoeste 19 Sudoeste 0 -- -- 88
2020-10-17 00:00:00 17.4 12 Sudoeste 16 Sudoeste 0 -- -- 87
2020-10-16 23:00:00 17.7 10 Sudoeste 17 Sudoeste 0 -- -- 89
2020-10-16 22:00:00 17.8 12 Sudoeste 18 Sudoeste 0 -- -- 89
2020-10-16 21:00:00 18 14 Sudoeste 17 Sudoeste 0.2 -- -- 90
2020-10-16 20:00:00 18 7 Sudoeste 13 Sur 0.6 -- -- 94
2020-10-16 19:00:00 18.1 10 Sudoeste 19 Sudoeste 0.2 -- -- 91
2020-10-16 18:00:00 18.4 9 Sudoeste 18 Sudoeste 0.6 -- -- 92
2020-10-16 17:00:00 18.6 5 Sur 19 Noroeste 2 -- -- 92
2020-10-16 16:00:00 19.4 5 Sudoeste 19 Este 1.8 -- -- 90
2020-10-16 15:00:00 20.5 8 Este 19 Este 0.2 -- -- 85
2020-10-16 14:00:00 21.7 11 Este 20 Este 0 -- -- 78
2020-10-16 13:00:00 21.5 9 Sudeste 19 Este 0 -- -- 75
2020-10-16 12:00:00 20.6 8 Este 14 Este 0 -- -- 81
2020-10-16 11:00:00 19.9 5 Sur 8 Sur 0 -- -- 84
2020-10-16 10:00:00 19.2 3 Sudoeste 16 Sur 0 -- -- 86
2020-10-16 09:00:00 17.9 10 Sudoeste 14 Sudoeste 0 -- -- 82
2020-10-16 08:00:00 18.3 11 Sudoeste 14 Sudoeste 0 -- -- 85
2020-10-16 07:00:00 18.3 7 Sudoeste 13 Sudoeste 0 -- -- 84
2020-10-16 06:00:00 18.5 10 Sudoeste 14 Sudoeste 0 -- -- 85
2020-10-16 05:00:00 18.7 9 Sudoeste 15 Sudoeste 0 -- -- 86
2020-10-16 04:00:00 18.9 5 Sur 17 Sudoeste 0 -- -- 86
2020-10-16 03:00:00 19 12 Sudoeste 18 Sudoeste 0 -- -- 86
2020-10-16 02:00:00 19.1 7 Sudoeste 19 Oeste 0 -- -- 84
2020-10-16 01:00:00 19.1 7 Sudoeste 16 Oeste 0 -- -- 85
2020-10-16 00:00:00 19.1 6 Sur 17 Sur 0 -- -- 85
2020-10-15 23:00:00 19.3 10 Sur 18 Sudeste 0 -- -- 86
2020-10-15 22:00:00 19.4 8 Sudeste 16 Sudeste 0 -- -- 88
2020-10-15 21:00:00 19.5 7 Sur 15 Sudeste 0 -- -- 88
2020-10-15 20:00:00 19.7 8 Sudeste 21 Nordeste 0 -- -- 89
2020-10-15 19:00:00 20.1 9 Este 15 Este 0 -- -- 89
2020-10-15 18:00:00 20.3 6 Este 15 Este 0 -- -- 86
2020-10-15 17:00:00 20.7 8 Este 18 Este 0 -- -- 86
2020-10-15 16:00:00 21.3 9 Sudeste 23 Este 0 -- -- 84
2020-10-15 15:00:00 22.6 13 Sudeste 27 Este 0 -- -- 78
2020-10-15 14:00:00 23.1 12 Sudeste 24 Este 0 -- -- 76
2020-10-15 13:00:00 22.9 14 Sudeste 26 Este 0 -- -- 77
2020-10-15 12:00:00 22.4 12 Sudeste 23 Este 0 -- -- 76
2020-10-15 11:00:00 22.2 9 Este 18 Este 0 -- -- 78
2020-10-15 10:00:00 21.2 8 Sudeste 15 Sudeste 0 -- -- 81
2020-10-15 09:00:00 19.3 10 Sudoeste 22 Sudoeste 0 -- -- 82
2020-10-15 08:00:00 19 14 Sudoeste 29 Sudoeste 0 -- -- 77
2020-10-15 07:00:00 19 14 Sudoeste 28 Sudoeste 0 -- -- 64
2020-10-15 06:00:00 18.7 8 Sudoeste 14 Sudoeste 0 -- -- 90
2020-10-15 05:00:00 18.7 6 Sudoeste 26 Sudoeste 0 -- -- 92
2020-10-15 04:00:00 19.1 14 Sudeste 30 Sudoeste 0 -- -- 82
2020-10-15 03:00:00 18.3 9 Sudoeste 23 Sudoeste 0 -- -- 85
2020-10-15 02:00:00 18.3 8 Sudoeste 22 Sudoeste 0 -- -- 89
2020-10-15 01:00:00 18.5 14 Sudoeste 28 Sudoeste 0 -- -- 90
2020-10-15 00:00:00 18.4 9 Sudoeste 18 Oeste 0 -- -- 90
2020-10-14 23:00:00 18.6 9 Sudoeste 19 Sudoeste 0 -- -- 88
2020-10-14 22:00:00 18.6 9 Sur 24 Sudoeste 0 -- -- 86
2020-10-14 21:00:00 19 10 Sudoeste 14 Sudoeste 0 -- -- 87
2020-10-14 20:00:00 19.7 8 Sudeste 14 Sudeste 0 -- -- 87
2020-10-14 19:00:00 20.2 6 Sudeste 14 Este 0 -- -- 86
2020-10-14 18:00:00 20.9 11 Este 20 Este 0 -- -- 83
2020-10-14 17:00:00 21.3 10 Este 20 Este 0 -- -- 84
2020-10-14 16:00:00 21.9 9 Este 21 Nordeste 0 -- -- 82
2020-10-14 15:00:00 21.6 8 Este 18 Este 0 -- -- 82
2020-10-14 14:00:00 22.2 10 Este 19 Este 0 -- -- 82
2020-10-14 13:00:00 22.4 10 Este 21 Este 0 -- -- 79
2020-10-14 12:00:00 22.9 10 Sudeste 20 Este 0 -- -- 77
2020-10-14 11:00:00 22.7 8 Este 17 Sudeste 0 -- -- 78
2020-10-14 10:00:00 21.8 10 Sudeste 16 Sur 0 -- -- 73
2020-10-14 09:00:00 20.6 8 Sudoeste 21 Sur 0 -- -- 57
2020-10-14 08:00:00 20.3 9 Sur 20 Sur 0 -- -- 57
2020-10-14 07:00:00 21.2 9 Sur 23 Sudeste 0 -- -- 37
2020-10-14 06:00:00 21.7 10 Sur 22 Sudoeste 0 -- -- 34
2020-10-14 05:00:00 21.9 14 Sudoeste 24 Sudoeste 0 -- -- 29
2020-10-14 04:00:00 21.4 9 Sudoeste 22 Sudeste 0 -- -- 33
2020-10-14 03:00:00 21.7 10 Sudoeste 24 Sudoeste 0 -- -- 29
2020-10-14 02:00:00 21.5 12 Sudoeste 21 Sudoeste 0 -- -- 37
2020-10-14 01:00:00 20.9 9 Sudoeste 19 Oeste 0 -- -- 41
2020-10-14 00:00:00 20.5 11 Sudoeste 23 Sudoeste 0 -- -- 60
2020-10-13 23:00:00 19.8 8 Sudoeste 12 Sudoeste 0 -- -- 91
2020-10-13 22:00:00 19.3 6 Sudoeste 10 Sudoeste 0 -- -- 91
2020-10-13 21:00:00 19.8 6 Sudoeste 10 Sudoeste 0 -- -- 89
2020-10-13 20:00:00 21 5 Sudoeste 17 Sudoeste 0 -- -- 72
2020-10-13 19:00:00 21.2 9 Sudeste 15 Sudeste 0 -- -- 92
2020-10-13 18:00:00 22 7 Este 17 Este 0 -- -- 89
2020-10-13 17:00:00 23.3 8 Este 15 Este 0 -- -- 83
2020-10-13 16:00:00 24.2 8 Nordeste 14 Nordeste 0 -- -- 79
2020-10-13 15:00:00 24.4 9 Nordeste 16 Nordeste 0 -- -- 78
2020-10-13 14:00:00 23.9 9 Nordeste 17 Nordeste 0 -- -- 79
2020-10-13 13:00:00 22.7 9 Nordeste 18 Este 0 -- -- 84
2020-10-13 12:00:00 25.5 9 Este 18 Este 0 -- -- 72
2020-10-13 11:00:00 24.2 8 Sudeste 17 Este 0 -- -- 73
2020-10-13 10:00:00 23.5 8 Sudeste 24 Sudeste 0 -- -- 66
2020-10-13 09:00:00 23.4 8 Sur 19 Sudoeste 0 -- -- 42
2020-10-13 08:00:00 22.9 11 Sudoeste 16 Sudoeste 0 -- -- 41
2020-10-13 07:00:00 24.9 12 Sudoeste 21 Sudoeste 0 -- -- 31
2020-10-13 06:00:00 24.7 9 Sur 20 Sudeste 0 -- -- 33
2020-10-13 05:00:00 24 9 Sudoeste 21 Sudoeste 0 -- -- 37
2020-10-13 04:00:00 24.3 10 Sudoeste 19 Sudoeste 0 -- -- 38
2020-10-13 03:00:00 -- -- -- -- -- -- -- -- --
2020-10-13 02:00:00 23.5 10 Sudoeste 23 Sudoeste 0 -- -- 38
2020-10-13 01:00:00 23.6 13 Sudoeste 23 Sudoeste 0 -- -- 39
2020-10-13 00:00:00 -- -- -- -- -- -- -- -- --
2020-10-12 23:00:00 22.5 11 Sudoeste 25 Sudoeste 0 -- -- 48
2020-10-12 22:00:00 22.1 9 Sudoeste 23 Sudoeste 0 -- -- 51
2020-10-12 21:00:00 20.9 7 Sudoeste 17 Sudoeste 0 -- -- 72
2020-10-12 20:00:00 20.8 8 Sudoeste 15 Oeste 0 -- -- 83
2020-10-12 19:00:00 21.4 7 Sur 15 Sudeste 0 -- -- 89
2020-10-12 18:00:00 22.6 9 Sur 18 Sur 0 -- -- 85
2020-10-12 17:00:00 -- -- -- -- -- -- -- -- --
2020-10-12 16:00:00 23.1 7 Sudeste 21 Sudeste 0 -- -- 83
2020-10-12 15:00:00 23.4 8 Este 22 Este 0 -- -- 81
2020-10-12 14:00:00 23.4 13 Este 22 Este 0 -- -- 81
2020-10-12 13:00:00 22.2 8 Sudeste 21 Sur 0 -- -- 85
2020-10-12 12:00:00 22.6 9 Sudeste 21 Este 0 -- -- 80
2020-10-12 11:00:00 22.5 10 Este 21 Este 0 -- -- 82
2020-10-12 10:00:00 21.3 10 Sur 19 Sudoeste 0 -- -- 82
2020-10-12 09:00:00 19 10 Sudoeste 19 Sudoeste 0 -- -- 88
2020-10-12 08:00:00 18.9 12 Sudoeste 27 Sudoeste 0 -- -- 87
2020-10-12 07:00:00 19.2 10 Sudoeste 22 Sudoeste 0 -- -- 87
2020-10-12 06:00:00 19.1 12 Sudoeste 20 Sudoeste 0 -- -- 88
2020-10-12 05:00:00 19.3 6 Sudoeste 17 Sudoeste 0 -- -- 87
2020-10-12 04:00:00 19.4 7 Sudoeste 20 Oeste 0 -- -- 88
2020-10-12 03:00:00 -- -- -- -- -- -- -- -- --
2020-10-12 02:00:00 19.4 10 Sur 18 Sur 0 -- -- 87
2020-10-12 01:00:00 19.3 8 Sudeste 16 Sudeste 0 -- -- 89
2020-10-12 00:00:00 19.5 8 Sur 21 Sudeste 0 -- -- 91
2020-10-11 23:00:00 19.6 9 Sur 21 Sudoeste 0 -- -- 92
2020-10-11 22:00:00 19.6 11 Sudeste 22 Sudeste 0 -- -- 93
2020-10-11 21:00:00 19.6 10 Sur 22 Oeste 0 -- -- 92
2020-10-11 20:00:00 -- -- -- -- -- -- -- -- --
2020-10-11 19:00:00 -- -- -- -- -- -- -- -- --
2020-10-11 18:00:00 20.2 10 Sudeste 20 Nordeste 0 -- -- 89
2020-10-11 17:00:00 20.4 15 Este 23 Este 0 -- -- 86
2020-10-11 16:00:00 21 15 Este 26 Este 0 -- -- 83
2020-10-11 15:00:00 20.7 17 Este 26 Este 0 -- -- 85
2020-10-11 14:00:00 20.7 12 Este 29 Este 0 -- -- 85
2020-10-11 13:00:00 20.7 21 Este 30 Este 0 -- -- 85
2020-10-11 12:00:00 20.6 12 Sudeste 23 Este 0 -- -- 82
2020-10-11 11:00:00 19.8 10 Sudeste 22 Sudeste 0 -- -- 83
2020-10-11 10:00:00 19.4 9 Sudoeste 19 Sudoeste 0 -- -- 86
2020-10-11 09:00:00 19.2 8 Sur 22 Oeste 0 -- -- 86
2020-10-11 08:00:00 19.1 7 Sur 17 Sudeste 0 -- -- 85
2020-10-11 07:00:00 19.1 6 Sudoeste 18 Sudoeste 0 -- -- 83
2020-10-11 06:00:00 19 8 Sudeste 17 Este 0 -- -- 88
2020-10-11 05:00:00 19 6 Sur 21 Este 0 -- -- 92
2020-10-11 04:00:00 19.2 10 Este 19 Este 0 -- -- 91
2020-10-11 03:00:00 19.2 15 Este 23 Este 0 -- -- 91
2020-10-11 02:00:00 19.3 10 Sudeste 23 Este 0 -- -- 92
2020-10-11 01:00:00 19.2 7 Sur 19 Este 0 -- -- 91
2020-10-11 00:00:00 19.3 12 Este 20 Este 0 -- -- 91
2020-10-10 23:00:00 19.3 13 Este 19 Nordeste 0 -- -- 92
2020-10-10 22:00:00 19.3 9 Este 15 Este 0 -- -- 93
2020-10-10 21:00:00 19.1 8 Este 15 Este 0.2 -- -- 92
2020-10-10 20:00:00 19.2 4 Sudeste 16 Este 0.6 -- -- 92
2020-10-10 19:00:00 19.5 11 Este 20 Este 0 -- -- 87
2020-10-10 18:00:00 19.8 6 Este 19 Este 0 -- -- 88
2020-10-10 17:00:00 20.6 12 Este 19 Este 0 -- -- 84
2020-10-10 16:00:00 21.1 10 Este 18 Nordeste 0 -- -- 81
2020-10-10 15:00:00 21.2 9 Este 21 Este 0 -- -- 82
2020-10-10 14:00:00 21.8 12 Este 22 Este 0 -- -- 77
2020-10-10 13:00:00 21.8 9 Este 18 Este 0 -- -- 79
2020-10-10 12:00:00 22.1 12 Nordeste 28 Este 0 -- -- 76
2020-10-10 11:00:00 22.2 7 Sudeste 20 Sudoeste 0 -- -- 66
2020-10-10 10:00:00 19.9 3 Sur 10 Nordeste 0 -- -- 85
2020-10-10 09:00:00 19.3 4 Este 15 Este 0 -- -- 88
2020-10-10 08:00:00 19.1 7 Nordeste 15 Este 0 -- -- 92
2020-10-10 07:00:00 19.1 9 Este 17 Este 0 -- -- 93
2020-10-10 06:00:00 19.2 2 Sudoeste 13 Sudoeste 0 -- -- 89
2020-10-10 05:00:00 19.5 9 Sudoeste 12 Sudoeste 0 -- -- 82
2020-10-10 04:00:00 19.5 6 Sudoeste 11 Sudoeste 0 -- -- 81
2020-10-10 03:00:00 19.5 6 Sudoeste 15 Sudoeste 0 -- -- 85
2020-10-10 02:00:00 19.6 4 Sur 15 Sudoeste 0 -- -- 89
2020-10-10 01:00:00 19.7 3 Nordeste 18 Sur 0 -- -- 86
2020-10-10 00:00:00 19.5 5 Sudoeste 12 Sudoeste 0 -- -- 88
2020-10-09 23:00:00 19.7 3 Oeste 15 Sudoeste 0 -- -- 85
2020-10-09 22:00:00 19.8 9 Oeste 22 Noroeste 0 -- -- 79
2020-10-09 21:00:00 20 6 Oeste 16 Sudoeste 0 -- -- 79
2020-10-09 20:00:00 19.7 9 Sudoeste 12 Sudoeste 0 -- -- 77
2020-10-09 19:00:00 21.4 9 Norte 17 Nordeste 0 -- -- 71
2020-10-09 18:00:00 23.2 5 Nordeste 18 Este 0 -- -- 63
2020-10-09 17:00:00 24.3 13 Este 19 Este 0 -- -- 63
2020-10-09 16:00:00 24.5 8 Sudeste 19 Este 0 -- -- 62
2020-10-09 15:00:00 25.1 12 Este 19 Este 0 -- -- 63
2020-10-09 14:00:00 23.2 5 Nordeste 12 Este 0 -- -- 64
2020-10-09 13:00:00 21.9 5 Oeste 14 Nordeste 0 -- -- 73
2020-10-09 12:00:00 20.5 8 Este 17 Nordeste 0 -- -- 92
2020-10-09 11:00:00 20.1 12 Este 19 Este 0 -- -- 96
2020-10-09 10:00:00 20 9 Este 15 Este 0 -- -- 96
2020-10-09 09:00:00 19.3 6 Sudoeste 14 Oeste 0 -- -- 92
2020-10-09 08:00:00 19.1 4 Sudoeste 14 Sudoeste 0 -- -- 93
2020-10-09 07:00:00 19.3 4 Sudoeste 7 Norte 0 -- -- 96
2020-10-09 06:00:00 19.2 5 Nordeste 14 Nordeste 0 -- -- 96
2020-10-09 05:00:00 19.4 3 Este 12 Este 0.2 -- -- 96
2020-10-09 04:00:00 19.3 7 Sudoeste 13 Oeste 1 -- -- 94
2020-10-09 03:00:00 19.5 5 Oeste 15 Sudoeste 0 -- -- 86
2020-10-09 02:00:00 19.3 9 Sudoeste 16 Sudoeste 0 -- -- 86
2020-10-09 01:00:00 18.9 5 Oeste 13 Sudoeste 0 -- -- 91
2020-10-09 00:00:00 18.6 9 Oeste 11 Sudoeste 0 -- -- 90
2020-10-08 23:00:00 18.7 5 Oeste 10 Oeste 0 -- -- 88
2020-10-08 22:00:00 18.8 4 Oeste 13 Sudoeste 0 -- -- 90
2020-10-08 21:00:00 18.8 8 Sudoeste 10 Sudoeste 0 -- -- 91
2020-10-08 20:00:00 19.6 3 Sudoeste 6 Nordeste 0 -- -- 92
2020-10-08 19:00:00 20.5 3 Este 10 Este 0 -- -- 88
2020-10-08 18:00:00 21.4 6 Este 13 Este 0 -- -- 86
2020-10-08 17:00:00 22 7 Este 16 Este 0 -- -- 85
2020-10-08 16:00:00 22.2 7 Este 13 Este 0 -- -- 83
2020-10-08 15:00:00 22.4 8 Este 14 Nordeste 0 -- -- 82
2020-10-08 14:00:00 22.7 8 Este 15 Nordeste 0 -- -- 79
2020-10-08 13:00:00 24.2 11 Este 18 Este 0 -- -- 76
2020-10-08 12:00:00 24 12 Este 17 Este 0 -- -- 77
2020-10-08 11:00:00 23 9 Este 15 Este 0 -- -- 79
2020-10-08 10:00:00 20.7 5 Este 9 Sudeste 0 -- -- 88
2020-10-08 09:00:00 18.9 5 Sudoeste 10 Sudoeste 0 -- -- 95
2020-10-08 08:00:00 18.2 4 Sudoeste 8 Sudoeste 0 -- -- 94
2020-10-08 07:00:00 18 4 Sudoeste 7 Oeste 0 -- -- 95
2020-10-08 06:00:00 18.1 4 Sudoeste 7 Sudoeste 0 -- -- 95
2020-10-08 05:00:00 18.3 5 Oeste 8 Sudoeste 0 -- -- 94
2020-10-08 04:00:00 18.3 3 Sudoeste 9 Sudoeste 0 -- -- 95
2020-10-08 03:00:00 18.6 7 Oeste 11 Sudoeste 0 -- -- 95
2020-10-08 02:00:00 19 3 Sudoeste 5 Sudoeste 0 -- -- 96
2020-10-08 01:00:00 19.1 0 Calma 9 Sudoeste 0 -- -- 96
2020-10-08 00:00:00 19.3 4 Sudoeste 9 Sudoeste 0 -- -- 95
2020-10-07 23:00:00 19.7 4 Sudoeste 6 Oeste 0 -- -- 95
2020-10-07 22:00:00 19.7 2 Oeste 6 Oeste 0 -- -- 94
2020-10-07 21:00:00 20.1 4 Nordeste 6 Nordeste 0 -- -- 95
2020-10-07 20:00:00 20.6 4 Nordeste 9 Este 0 -- -- 93
2020-10-07 19:00:00 21.1 5 Este 9 Este 0 -- -- 91
2020-10-07 18:00:00 21.8 5 Este 12 Nordeste 0 -- -- 89
2020-10-07 17:00:00 22.7 6 Este 21 Este 0 -- -- 87
2020-10-07 16:00:00 22.8 6 Este 19 Este 0 -- -- 84
2020-10-07 15:00:00 22.2 7 Este 18 Este 0 -- -- 85
2020-10-07 14:00:00 21.9 7 Sudeste 15 Sudeste 0 -- -- 87
2020-10-07 13:00:00 21.3 6 Sudeste 15 Este 0 -- -- 91
2020-10-07 12:00:00 20.7 5 Sudeste 12 Sudeste 0 -- -- 92
2020-10-07 11:00:00 20.3 5 Sudeste 12 Sudeste 0 -- -- 93
2020-10-07 10:00:00 19.7 5 Sudeste 9 Sudeste 0 -- -- 95
2020-10-07 09:00:00 19.2 5 Sudoeste 9 Sudoeste 0 -- -- 95
2020-10-07 08:00:00 18.9 5 Sudoeste 9 Sudoeste 0 -- -- 95
2020-10-07 07:00:00 18.9 6 Sudoeste 12 Sudoeste 0 -- -- 96
2020-10-07 06:00:00 18.8 6 Sudoeste 10 Sudoeste 0 -- -- 96
2020-10-07 05:00:00 18.9 5 Sudoeste 9 Sudoeste 0.2 -- -- 96
2020-10-07 04:00:00 18.9 6 Sudoeste 10 Sudoeste 0 -- -- 96
2020-10-07 03:00:00 18.8 4 Sur 11 Sudoeste 0.4 -- -- 97
2020-10-07 02:00:00 18.8 5 Sur 11 Sur 0.6 -- -- 97
2020-10-07 01:00:00 18.8 5 Sur 14 Oeste 0.4 -- -- 97
2020-10-07 00:00:00 18.7 5 Sudoeste 19 Sudoeste 0.6 -- -- 97
2020-10-06 23:00:00 18.6 9 Sudoeste 22 Sudoeste 0.2 -- -- 95
2020-10-06 22:00:00 18.3 12 Sudoeste 21 Sudoeste 0.4 -- -- 95
2020-10-06 21:00:00 18.8 10 Sudoeste 23 Sudoeste 0 -- -- 88
2020-10-06 20:00:00 18.5 13 Sudoeste 21 Sudoeste 0 -- -- 90
2020-10-06 19:00:00 18.2 14 Sudoeste 22 Sudoeste 0.2 -- -- 91
2020-10-06 18:00:00 18 8 Sudoeste 17 Sudoeste 1.4 -- -- 94
2020-10-06 17:00:00 18.3 9 Sudoeste 27 Sudoeste 0 -- -- 92
2020-10-06 16:00:00 17.7 13 Sudoeste 24 Sudoeste 0.8 -- -- 94
2020-10-06 15:00:00 17.5 13 Sudoeste 19 Este 1.6 -- -- 96
2020-10-06 14:00:00 17.8 8 Sur 22 Sudoeste 2.6 -- -- 97
2020-10-06 13:00:00 17.4 13 Sudoeste 24 Sudeste 5.6 -- -- 96
2020-10-06 12:00:00 17.9 10 Sur 23 Sudeste 5 -- -- 98
2020-10-06 11:00:00 18.1 7 Sur 18 Sudoeste 3 -- -- 96
2020-10-06 10:00:00 18.1 9 Sudeste 18 Sudeste 5 -- -- 97
2020-10-06 09:00:00 18.2 8 Sudeste 24 Sudoeste 4.4 -- -- 95
2020-10-06 08:00:00 18.4 9 Sur 18 Sudoeste 0.8 -- -- 92
2020-10-06 07:00:00 18.6 9 Sudeste 18 Sur 0 -- -- 93
2020-10-06 06:00:00 18.6 6 Sur 22 Sudeste 1.2 -- -- 95
2020-10-06 05:00:00 18.8 10 Sudeste 22 Sudeste 0.4 -- -- 93
2020-10-06 04:00:00 19 12 Sudeste 23 Sudeste 0.2 -- -- 94
2020-10-06 03:00:00 19 13 Sudeste 28 Sudeste 0.4 -- -- 95
2020-10-06 02:00:00 19.1 11 Sudeste 20 Sudeste 0 -- -- 96
2020-10-06 01:00:00 18.9 10 Sudeste 26 Este 3.8 -- -- 95
2020-10-06 00:00:00 19.1 12 Sudoeste 20 Sudoeste 0 -- -- 91
2020-10-05 23:00:00 19.1 7 Sur 21 Sudoeste 0 -- -- 89
2020-10-05 22:00:00 19.2 10 Sudoeste 24 Sudoeste 0 -- -- 86
2020-10-05 21:00:00 18.9 17 Sudoeste 32 Oeste 0 -- -- 87
2020-10-05 20:00:00 19 13 Sudoeste 29 Sudoeste 0.2 -- -- 87
2020-10-05 19:00:00 19 13 Sudoeste 33 Sudoeste 0.6 -- -- 88
2020-10-05 18:00:00 19.4 14 Sudoeste 34 Sudoeste 0 -- -- 86
2020-10-05 17:00:00 19.5 20 Sudoeste 32 Sudoeste 0.4 -- -- 84
2020-10-05 16:00:00 18.6 12 Sudeste 27 Este 2.6 -- -- 96
2020-10-05 15:00:00 19.4 11 Sur 30 Este 0.8 -- -- 94
2020-10-05 14:00:00 20.2 12 Sudeste 22 Este 0.6 -- -- 93
2020-10-05 13:00:00 20.6 9 Sudoeste 21 Sur 0.2 -- -- 87
2020-10-05 12:00:00 20.8 17 Este 30 Este 0 -- -- 89
2020-10-05 11:00:00 21.6 6 Sudeste 19 Nordeste 0 -- -- 82
2020-10-05 10:00:00 21.4 8 Este 17 Nordeste 0 -- -- 82
2020-10-05 09:00:00 19.2 7 Sur 17 Sudoeste 0 -- -- 86
2020-10-05 08:00:00 19 8 Sur 17 Sudeste 0 -- -- 86
2020-10-05 07:00:00 18.5 13 Sudoeste 22 Sudoeste 0.2 -- -- 92
2020-10-05 06:00:00 18.8 7 Sudoeste 17 Sudoeste 0 -- -- 86
2020-10-05 05:00:00 18.9 11 Sudoeste 18 Sudoeste 0 -- -- 86
2020-10-05 04:00:00 19.3 8 Sur 35 Sudoeste 0 -- -- 82
2020-10-05 03:00:00 19.2 13 Sudoeste 24 Sudoeste 0 -- -- 83
2020-10-05 02:00:00 18.6 5 Sur 17 Sudoeste 0.2 -- -- 91
2020-10-05 01:00:00 19.4 13 Sudoeste 26 Sudoeste 0 -- -- 84
2020-10-05 00:00:00 18.3 10 Sudoeste 16 Sudoeste 0 -- -- 90
2020-10-04 23:00:00 18.2 9 Sudoeste 14 Sudoeste 0 -- -- 91
2020-10-04 22:00:00 18.9 13 Sudoeste 18 Sudoeste 0 -- -- 91
2020-10-04 21:00:00 19 6 Sudoeste 14 Sudoeste 0.2 -- -- 93
2020-10-04 20:00:00 18.8 4 Sudeste 19 Nordeste 0.8 -- -- 96
2020-10-04 19:00:00 20.6 4 Norte 13 Este 0 -- -- 86
2020-10-04 18:00:00 21.4 5 Norte 14 Nordeste 0 -- -- 83
2020-10-04 17:00:00 20.6 7 Nordeste 20 Nordeste 0 -- -- 88
2020-10-04 16:00:00 21.7 13 Este 18 Nordeste 0 -- -- 82
2020-10-04 15:00:00 22.1 12 Este 20 Nordeste 0 -- -- 82
2020-10-04 14:00:00 21.8 9 Este 26 Este 0 -- -- 79
2020-10-04 13:00:00 23.9 13 Este 23 Este 0 -- -- 80
2020-10-04 12:00:00 21.7 10 Este 23 Este 0 -- -- 85
2020-10-04 11:00:00 20.4 12 Nordeste 19 Nordeste 0 -- -- 94
2020-10-04 10:00:00 19.4 6 Sudoeste 23 Este 0 -- -- 95
2020-10-04 09:00:00 19.2 5 Sur 13 Sudoeste 1 -- -- 96
2020-10-04 08:00:00 19.3 5 Oeste 15 Oeste 0 -- -- 93
2020-10-04 07:00:00 19.3 5 Oeste 20 Sudoeste 0 -- -- 90
2020-10-04 06:00:00 19.2 5 Sudeste 15 Sudoeste 1 -- -- 95
2020-10-04 05:00:00 19 7 Sudoeste 13 Sudoeste 1.2 -- -- 94
2020-10-04 04:00:00 19 8 Sudoeste 13 Sudoeste 0 -- -- 94
2020-10-04 03:00:00 18.9 8 Oeste 13 Noroeste 1.4 -- -- 96
2020-10-04 02:00:00 19 9 Oeste 17 Sudoeste 0.2 -- -- 93
2020-10-04 01:00:00 19 9 Norte 16 Sudoeste 0.6 -- -- 95
2020-10-04 00:00:00 19.1 12 Sudoeste 17 Sudoeste 0.2 -- -- 91
2020-10-03 23:00:00 19.4 7 Oeste 17 Sudoeste 0 -- -- 91
2020-10-03 22:00:00 19.4 4 Noroeste 14 Sudoeste 0 -- -- 95
2020-10-03 21:00:00 19.2 5 Oeste 17 Norte 0 -- -- 94
2020-10-03 20:00:00 19.7 12 Nordeste 16 Nordeste 0.2 -- -- 93
2020-10-03 19:00:00 20.4 9 Norte 17 Norte 0 -- -- 87
2020-10-03 18:00:00 20.6 8 Norte 17 Nordeste 0 -- -- 84
2020-10-03 17:00:00 19.9 11 Norte 27 Nordeste 0 -- -- 88
2020-10-03 16:00:00 20.7 18 Nordeste 29 Nordeste 0 -- -- 86
2020-10-03 15:00:00 23.3 12 Norte 23 Norte 0 -- -- 66
2020-10-03 14:00:00 23.3 10 Nordeste 17 Nordeste 0 -- -- 63
2020-10-03 13:00:00 22.8 8 Nordeste 26 Norte 0 -- -- 69
2020-10-03 12:00:00 20.9 8 Oeste 23 Norte 0 -- -- 78
2020-10-03 11:00:00 21.7 11 Sudoeste 21 Sudoeste 0 -- -- 71
2020-10-03 10:00:00 19.6 8 Norte 22 Oeste 0 -- -- 85
2020-10-03 09:00:00 19.7 8 Norte 18 Sudoeste 0 -- -- 73
2020-10-03 08:00:00 19.4 11 Sudoeste 22 Sudoeste 0 -- -- 74
2020-10-03 07:00:00 19.1 11 Oeste 20 Oeste 0 -- -- 79
2020-10-03 06:00:00 18.9 11 Oeste 17 Sudoeste 0 -- -- 81
2020-10-03 05:00:00 19.1 8 Oeste 15 Oeste 0 -- -- 83
2020-10-03 04:00:00 18.9 11 Oeste 24 Sudoeste 0 -- -- 75
2020-10-03 03:00:00 18.6 13 Sudoeste 20 Sudoeste 0 -- -- 80
2020-10-03 02:00:00 18.7 13 Sudoeste 21 Sudoeste 0 -- -- 85
2020-10-03 01:00:00 18.9 6 Noroeste 15 Norte 0 -- -- 88
2020-10-03 00:00:00 18.9 7 Nordeste 18 Norte 0.8 -- -- 91
2020-10-02 23:00:00 19.2 12 Noroeste 22 Sudoeste 0.8 -- -- 90
2020-10-02 22:00:00 19.5 11 Oeste 22 Sudoeste 0 -- -- 83
2020-10-02 21:00:00 19.5 7 Oeste 19 Norte 0 -- -- 83
2020-10-02 20:00:00 19.8 9 Noroeste 27 Norte 0 -- -- 81
2020-10-02 19:00:00 20.1 18 Norte 28 Norte 0 -- -- 88
2020-10-02 18:00:00 21.2 15 Norte 27 Norte 0 -- -- 78
2020-10-02 17:00:00 21.4 12 Norte 24 Nordeste 0 -- -- 72
2020-10-02 16:00:00 20.7 10 Noroeste 23 Este 0 -- -- 77
2020-10-02 15:00:00 22.9 14 Norte 23 Norte 0 -- -- 65
2020-10-02 14:00:00 22.6 5 Noroeste 17 Norte 0 -- -- 64
2020-10-02 13:00:00 22.1 7 Noroeste 22 Sudoeste 0 -- -- 61
2020-10-02 12:00:00 21.4 4 Sur 16 Sur 0 -- -- 64
2020-10-02 11:00:00 19.7 12 Sudoeste 20 Nordeste 0 -- -- 80
2020-10-02 10:00:00 20.2 4 Nordeste 16 Sudoeste 0 -- -- 74
2020-10-02 09:00:00 19 6 Oeste 17 Noroeste 0 -- -- 81
2020-10-02 08:00:00 18.5 4 Oeste 15 Sudoeste 0.2 -- -- 86
2020-10-02 07:00:00 18.9 4 Oeste 19 Sudoeste 0 -- -- 76
2020-10-02 06:00:00 18.7 12 Sudoeste 21 Sudoeste 0 -- -- 75
2020-10-02 05:00:00 18.4 17 Sudoeste 24 Sudoeste 0 -- -- 79
2020-10-02 04:00:00 18.3 13 Sudoeste 24 Sudoeste 0 -- -- 83
2020-10-02 03:00:00 18.7 8 Oeste 24 Sudoeste 0 -- -- 80
2020-10-02 02:00:00 18.4 9 Oeste 17 Sudoeste 0 -- -- 86
2020-10-02 01:00:00 18.8 7 Oeste 12 Noroeste 0 -- -- 87
2020-10-02 00:00:00 19 4 Oeste 17 Norte 0 -- -- 86
2020-10-01 23:00:00 19 7 Norte 18 Nordeste 0 -- -- 89
2020-10-01 22:00:00 18.8 6 Oeste 16 Sudoeste 0.2 -- -- 91
2020-10-01 21:00:00 18.7 8 Oeste 19 Nordeste 0.6 -- -- 91
2020-10-01 20:00:00 19.5 17 Nordeste 29 Nordeste 0 -- -- 92
2020-10-01 19:00:00 21.3 7 Este 14 Este 0 -- -- 75
2020-10-01 18:00:00 22.1 8 Nordeste 19 Nordeste 0 -- -- 72
2020-10-01 17:00:00 23 10 Este 20 Este 0 -- -- 68
2020-10-01 16:00:00 23.6 6 Este 19 Este 0 -- -- 65
2020-10-01 15:00:00 23.6 15 Este 24 Este 0 -- -- 68
2020-10-01 14:00:00 22.6 10 Este 20 Sudeste 0 -- -- 68
2020-10-01 13:00:00 20.8 8 Sudeste 30 Este 0 -- -- 82
2020-10-01 12:00:00 20.7 6 Sudoeste 18 Sudoeste 0 -- -- 79
2020-10-01 11:00:00 19.4 13 Sudoeste 24 Nordeste 0.2 -- -- 84
2020-10-01 10:00:00 19.9 4 Este 12 Este 0 -- -- 82
2020-10-01 09:00:00 19.6 3 Sudeste 23 Sudoeste 0 -- -- 76
2020-10-01 08:00:00 18.5 13 Sudoeste 17 Sudoeste 0 -- -- 83
2020-10-01 07:00:00 18.8 10 Sudoeste 16 Sudoeste 0 -- -- 87
2020-10-01 06:00:00 18.8 6 Sudoeste 10 Sudoeste 0 -- -- 87
2020-10-01 05:00:00 18.8 6 Oeste 14 Sudoeste 0 -- -- 88
2020-10-01 04:00:00 18.8 7 Sudoeste 18 Sudoeste 0 -- -- 88
2020-10-01 03:00:00 19.2 6 Nordeste 24 Nordeste 0 -- -- 80
2020-10-01 02:00:00 19.4 10 Este 18 Este 0 -- -- 83
2020-10-01 01:00:00 19.3 7 Sudoeste 10 Sudoeste 0 -- -- 83
2020-10-01 00:00:00 19.6 3 Oeste 14 Este 0 -- -- 82
2020-09-30 23:00:00 19.7 9 Nordeste 15 Nordeste 0 -- -- 82
2020-09-30 22:00:00 19.7 6 Sudoeste 13 Sudoeste 0 -- -- 78
2020-09-30 21:00:00 19.7 6 Sudoeste 22 Sudoeste 0 -- -- 79
2020-09-30 20:00:00 19.5 8 Sudoeste 20 Nordeste 0 -- -- 82
2020-09-30 19:00:00 20.8 6 Nordeste 12 Nordeste 0 -- -- 82
2020-09-30 18:00:00 21.5 6 Nordeste 17 Este 0 -- -- 73
2020-09-30 17:00:00 23.2 7 Este 15 Este 0 -- -- 65
2020-09-30 16:00:00 22.4 7 Nordeste 18 Nordeste 0 -- -- 69
2020-09-30 15:00:00 22.8 9 Nordeste 21 Este 0 -- -- 71
2020-09-30 14:00:00 22.2 5 Nordeste 16 Este 0 -- -- 72
2020-09-30 13:00:00 21.4 4 Sudoeste 17 Nordeste 0 -- -- 72
2020-09-30 12:00:00 19.7 9 Sudoeste 21 Este 0.2 -- -- 86
2020-09-30 11:00:00 21.1 3 Este 12 Norte 0 -- -- 77
2020-09-30 10:00:00 20 11 Sudoeste 19 Sudoeste 0 -- -- 79
2020-09-30 09:00:00 19.2 8 Sudoeste 15 Sudoeste 0 -- -- 78
2020-09-30 08:00:00 18.8 5 Sudoeste 15 Oeste 0 -- -- 83
2020-09-30 07:00:00 18.8 9 Sudoeste 15 Oeste 0 -- -- 78
2020-09-30 06:00:00 19.2 7 Sudoeste 22 Sudoeste 0 -- -- 79
2020-09-30 05:00:00 18.7 9 Sudoeste 14 Sudoeste 0 -- -- 88
2020-09-30 04:00:00 18.5 7 Sudoeste 10 Sudoeste 0 -- -- 89
2020-09-30 03:00:00 18.5 9 Sudoeste 15 Sudoeste 0 -- -- 86
2020-09-30 02:00:00 18.6 12 Sudoeste 15 Sudoeste 0.2 -- -- 90
2020-09-30 01:00:00 19.3 10 Sudoeste 13 Sudoeste 0 -- -- 83
2020-09-30 00:00:00 19.3 5 Nordeste 12 Este 0 -- -- 85